Willmar, MN

4:31 PM CST on March 06, 2015 (GMT -0600)
Willmar | Change Station
CLOSE
Current Station
Airport
Location: Willmar,
Elevation: 1125 ft
Nearby Weather Stations

Elev 1125 ft 45.12 °N, 95.13 °W | Updated 16 minutes ago

Clear
Clear
34 °F
Feels Like 24 °F
N
14
Wind Variable Wind from NW
Gusts 18 mph

Today
High -- | Low -- °F
--% Chance of Precip.
Yesterday
High -- | Low -- °F
Precip. -- in
6:49 AM 6:14 PM
Full, 99% visible
Pressure 30.09 in
Visibility 10.0 miles
Clouds Clear
Windchill 24 °F
Dew Point 19 °F
Humidity 56%
Rainfall 0.00 in
Snow Depth Not available.
UV 1 out of 12
Pollen .40 out of 12
Air Quality Not available.
Flu Activity Not available.
METAR KBDH 062215Z AUTO 32012G16KT 10SM CLR 01/M07 A3009 RMK AO2

More Conditions Fewer Conditions

Pressure 30.09 in
Visibility 10.0 miles
Clouds Clear
Windchill 24 °F
Dew Point 19 °F
Humidity 56%
Rainfall 0.00 in
Snow Depth Not available.
UV 1 out of 12
Pollen .40 out of 12
Air Quality Not available.
Flu Activity Not available.
METAR KBDH 062215Z AUTO 32012G16KT 10SM CLR 01/M07 A3009 RMK AO2

More Conditions Fewer Conditions

10-Day Weather Forecast

Almanac

Astronomy

Mar. 06, 2015 Rise Set
Actual Time
Civil Twilight
Nautical Twilight
Astronomical Twilight
Moon
Length of Visible Light
Length of Day
Tomorrow will be .
, % of the Moon is Illuminated

Today's Extremes

State Highs State Lows

Community

WunderPhotos

Upload Photos

1,803,420 photos uploaded!

WunderBlogs® & News

Nearby

Air Quality

  Air Quality AQ Index Pollutant
Not available.

Snow Depth

Station Depth Elevation

Earthquake Activity

City Distance Mag. Time & Date
Minimum magnitude displayed is 2.5.

Coastal Water Temperatures

Place Temperature

Nearby Weather Stations